Time;durP1;ratioP1;P1;durP2;ratioP2;P2;SDS_P1;SDS_P2;PMS_P1;PMS_P2;Temp;Humidity;BMP_temperature;BMP_pressure;BME280_temperature;BME280_humidity;BME280_pressure;Samples;Min_cycle;Max_cycle;Signal;HPM_P1;HPM_P2
2023/07/24 00:00:40;;;;;;;3.97;3.45;;;18.10;99.90;;;;;;5016016;28;20198;-69
2023/07/24 00:03:08;;;;;;;4.80;3.20;;;;;;;;;;5017063;28;20233;-70
2023/07/24 00:05:35;;;;;;;5.13;3.20;;;18.10;99.90;;;;;;4997961;28;20890;-69
2023/07/24 00:08:03;;;;;;;7.43;3.60;;;18.10;99.90;;;;;;5017117;28;20201;-70
2023/07/24 00:10:30;;;;;;;3.95;3.60;;;18.10;99.90;;;;;;5016653;28;20228;-70
2023/07/24 00:12:57;;;;;;;6.72;3.70;;;18.10;99.90;;;;;;5018455;28;20202;-70
2023/07/24 00:15:23;;;;;;;5.15;3.50;;;18.40;99.90;;;;;;5015281;28;20205;-70
2023/07/24 00:17:50;;;;;;;5.50;3.75;;;18.10;99.90;;;;;;5016862;28;20205;-70
2023/07/24 00:20:17;;;;;;;5.00;3.50;;;18.10;99.90;;;;;;5013533;28;20850;-70
2023/07/24 00:22:44;;;;;;;8.68;3.83;;;18.10;99.90;;;;;;4995667;28;20220;-70
2023/07/24 00:25:12;;;;;;;5.72;3.33;;;18.10;99.90;;;;;;5015819;28;20205;-70
2023/07/24 00:27:39;;;;;;;4.15;3.10;;;18.10;99.90;;;;;;5015510;28;20226;-69
2023/07/24 00:30:07;;;;;;;3.97;3.55;;;18.10;99.90;;;;;;5015256;28;20598;-70
2023/07/24 00:32:34;;;;;;;5.50;3.60;;;18.00;99.90;;;;;;5017399;28;20205;-69
2023/07/24 00:35:03;;;;;;;3.70;3.40;;;17.60;99.90;;;;;;5015102;28;20232;-70
2023/07/24 00:37:29;;;;;;;3.30;3.00;;;18.00;99.90;;;;;;4996674;28;20944;-70
2023/07/24 00:39:56;;;;;;;4.15;3.55;;;18.00;99.90;;;;;;5015015;28;20253;-71
2023/07/24 00:42:24;;;;;;;4.45;3.47;;;18.00;99.90;;;;;;5013361;28;20214;-70
2023/07/24 00:44:51;;;;;;;5.50;3.58;;;18.00;99.90;;;;;;5016027;28;20236;-69
2023/07/24 00:47:18;;;;;;;4.18;3.00;;;18.00;99.90;;;;;;5008079;28;20226;-69
2023/07/24 00:49:46;;;;;;;7.07;3.55;;;18.00;99.90;;;;;;5016658;28;20225;-69
2023/07/24 00:52:13;;;;;;;3.58;3.28;;;17.90;99.90;;;;;;4996108;28;25456;-70
2023/07/24 00:54:40;;;;;;;4.03;3.63;;;17.90;99.90;;;;;;5017099;28;20190;-70
2023/07/24 00:57:07;;;;;;;5.63;3.47;;;17.90;99.90;;;;;;5014425;28;20206;-71
2023/07/24 00:59:36;;;;;;;6.47;3.28;;;17.90;99.90;;;;;;5014324;28;20194;-70
2023/07/24 01:02:03;;;;;;;4.85;3.30;;;17.90;99.90;;;;;;5014653;28;20198;-70
2023/07/24 01:04:30;;;;;;;4.43;3.03;;;17.90;99.90;;;;;;5015182;28;20217;-70
2023/07/24 01:06:57;;;;;;;3.55;3.13;;;18.60;99.90;;;;;;5011644;28;21439;-70
2023/07/24 01:09:24;;;;;;;4.63;3.30;;;17.90;99.90;;;;;;4999638;28;20210;-70
2023/07/24 01:11:57;;;;;;;4.95;3.33;;;17.90;99.90;;;;;;5017371;28;20660;-70
2023/07/24 01:14:27;;;;;;;5.53;3.45;;;17.80;99.90;;;;;;5016198;28;20201;-70
2023/07/24 01:16:57;;;;;;;5.35;3.22;;;17.80;99.90;;;;;;5016099;28;20573;-70
2023/07/24 01:19:38;;;;;;;3.80;3.28;;;17.80;99.90;;;;;;5014742;28;20203;-70
2023/07/24 01:22:13;;;;;;;4.80;3.05;;;17.80;99.90;;;;;;5012964;28;20238;-70
2023/07/24 01:24:53;;;;;;;3.72;3.33;;;17.90;99.90;;;;;;4996802;28;20212;-70
2023/07/24 01:27:24;;;;;;;6.43;3.45;;;17.80;99.90;;;;;;5014276;28;20233;-70
2023/07/24 01:29:59;;;;;;;5.63;3.42;;;17.80;99.90;;;;;;5109779;27;20757;-70
2023/07/24 01:32:26;;;;;;;3.58;3.05;;;18.30;99.90;;;;;;5109924;27;20218;-70
2023/07/24 01:34:53;;;;;;;4.43;3.25;;;17.80;99.90;;;;;;5108498;27;20218;-74
2023/07/24 01:37:23;;;;;;;7.63;3.60;;;17.80;99.90;;;;;;5108708;28;20194;-69
2023/07/24 01:39:51;;;;;;;4.78;3.20;;;17.80;99.90;;;;;;5091737;27;20218;-70
2023/07/24 01:42:18;;;;;;;3.88;3.08;;;17.80;99.90;;;;;;5111411;28;20194;-70
2023/07/24 01:44:44;;;;;;;8.25;3.75;;;17.70;99.90;;;;;;5110773;28;20564;-69
2023/07/24 01:47:13;;;;;;;3.53;3.22;;;17.70;99.90;;;;;;5105475;28;20196;-70
2023/07/24 01:49:39;;;;;;;5.20;4.45;;;17.80;99.90;;;;;;5114101;28;20222;-70
2023/07/24 01:52:07;;;;;;;9.25;3.47;;;17.80;99.90;;;;;;5110023;27;20194;-70
2023/07/24 01:54:34;;;;;;;5.85;3.40;;;17.80;99.90;;;;;;5091738;28;20232;-69
2023/07/24 01:57:00;;;;;;;4.78;3.08;;;17.90;99.90;;;;;;5110010;27;20575;-70
2023/07/24 01:59:27;;;;;;;3.75;3.30;;;17.70;99.90;;;;;;5110025;28;20199;-70
2023/07/24 02:01:54;;;;;;;5.00;3.45;;;17.80;99.90;;;;;;5112484;27;20214;-70
2023/07/24 02:04:22;;;;;;;4.60;3.83;;;17.70;99.90;;;;;;5109144;27;20290;-70
2023/07/24 02:06:49;;;;;;;5.53;3.60;;;17.80;99.90;;;;;;5109420;27;20675;-69
2023/07/24 02:09:16;;;;;;;6.00;3.65;;;17.60;99.90;;;;;;5088166;28;20227;-69
2023/07/24 02:11:43;;;;;;;3.35;3.05;;;17.70;99.90;;;;;;5109673;27;20287;-69
2023/07/24 02:14:09;;;;;;;5.30;3.55;;;17.50;99.90;;;;;;5106928;27;20567;-75
2023/07/24 02:16:36;;;;;;;4.60;3.58;;;17.70;99.90;;;;;;5110146;27;20217;-69
2023/07/24 02:19:03;;;;;;;10.27;4.05;;;17.70;99.90;;;;;;5108618;28;20282;-71
2023/07/24 02:21:32;;;;;;;6.50;4.00;;;17.70;99.90;;;;;;5109355;28;20192;-70
2023/07/24 02:23:58;;;;;;;4.53;3.80;;;17.70;99.90;;;;;;5100238;27;20282;-69
2023/07/24 02:26:25;;;;;;;4.25;3.50;;;17.60;99.90;;;;;;5099556;28;20727;-70
2023/07/24 02:28:52;;;;;;;4.65;3.92;;;17.60;99.90;;;;;;5110299;27;20341;-70
2023/07/24 02:31:18;;;;;;;5.50;3.80;;;17.60;99.90;;;;;;5107199;27;20206;-70
2023/07/24 02:33:45;;;;;;;6.45;4.18;;;17.50;99.90;;;;;;5113233;27;20211;-69
2023/07/24 02:36:12;;;;;;;5.68;4.38;;;17.60;99.90;;;;;;5104960;27;20324;-70
2023/07/24 02:38:40;;;;;;;6.93;4.18;;;17.50;99.90;;;;;;5106670;27;20230;-69
2023/07/24 02:41:07;;;;;;;5.75;4.15;;;17.50;99.90;;;;;;5074864;27;20259;-70
2023/07/24 02:43:34;;;;;;;5.25;4.47;;;17.60;99.90;;;;;;5093972;28;20425;-70
2023/07/24 02:46:02;;;;;;;7.22;4.80;;;17.60;99.90;;;;;;5094081;28;20225;-70
2023/07/24 02:48:29;;;;;;;7.57;4.80;;;17.60;99.90;;;;;;5091430;28;20238;-69
2023/07/24 02:50:56;;;;;;;5.97;4.97;;;17.60;99.90;;;;;;5097146;27;20213;-69
2023/07/24 02:53:23;;;;;;;7.75;5.10;;;17.60;99.90;;;;;;5093209;28;20202;-70
2023/07/24 02:55:51;;;;;;;4.82;4.22;;;17.50;99.90;;;;;;5096626;28;20234;-69
2023/07/24 02:58:18;;;;;;;6.43;4.55;;;17.60;99.90;;;;;;5073498;28;20200;-70
2023/07/24 03:00:45;;;;;;;10.43;4.57;;;17.60;99.90;;;;;;5095913;28;20195;-69
2023/07/24 03:03:11;;;;;;;7.30;4.63;;;17.30;99.90;;;;;;5091939;27;20202;-70
2023/07/24 03:05:39;;;;;;;6.18;4.68;;;17.60;99.90;;;;;;5095661;28;20282;-70
2023/07/24 03:08:05;;;;;;;5.80;4.60;;;17.50;99.90;;;;;;5092046;28;20322;-70
2023/07/24 03:10:32;;;;;;;6.45;4.50;;;17.50;99.90;;;;;;5096611;28;20196;-70
2023/07/24 03:13:00;;;;;;;8.25;4.80;;;17.50;99.90;;;;;;5074602;28;20208;-70
2023/07/24 03:15:27;;;;;;;5.72;4.15;;;17.50;99.90;;;;;;5097119;27;20418;-69
2023/07/24 03:17:54;;;;;;;5.32;4.05;;;17.40;99.90;;;;;;5094369;28;20374;-69
2023/07/24 03:20:21;;;;;;;7.82;4.80;;;17.40;99.90;;;;;;5095589;28;20275;-70
2023/07/24 03:22:48;;;;;;;9.85;4.80;;;17.50;99.90;;;;;;5094286;27;20199;-69
2023/07/24 03:25:15;;;;;;;4.68;4.00;;;17.50;99.90;;;;;;5091717;28;20202;-69
2023/07/24 03:27:42;;;;;;;5.95;4.75;;;17.40;99.90;;;;;;5073444;27;20207;-69
2023/07/24 03:30:11;;;;;;;7.32;5.13;;;17.30;99.90;;;;;;5094182;28;20252;-70
2023/07/24 03:32:38;;;;;;;4.90;4.20;;;17.30;99.90;;;;;;5095415;28;20656;-70
2023/07/24 03:35:06;;;;;;;5.13;4.35;;;17.30;99.90;;;;;;5093277;28;20196;-70
2023/07/24 03:37:34;;;;;;;4.30;3.90;;;17.30;99.90;;;;;;5096175;28;20576;-69
2023/07/24 03:40:01;;;;;;;9.35;4.63;;;17.40;99.90;;;;;;5095695;28;20689;-71
2023/07/24 03:42:30;;;;;;;6.32;4.55;;;17.30;99.90;;;;;;5093469;28;20215;-69
2023/07/24 03:44:57;;;;;;;6.32;4.43;;;17.30;99.90;;;;;;5074638;28;20195;-70
2023/07/24 03:47:26;;;;;;;7.88;4.45;;;17.30;99.90;;;;;;5081335;28;20276;-70
2023/07/24 03:49:52;;;;;;;7.43;4.95;;;17.20;99.90;;;;;;5089900;28;20639;-70
2023/07/24 03:52:19;;;;;;;6.38;4.57;;;17.30;99.90;;;;;;5092045;28;20651;-69
2023/07/24 03:54:46;;;;;;;9.65;4.65;;;17.30;99.90;;;;;;5096638;28;20199;-70
2023/07/24 03:57:13;;;;;;;8.70;4.22;;;17.30;99.90;;;;;;5095041;28;20191;-69
2023/07/24 03:59:40;;;;;;;5.43;4.25;;;17.30;99.90;;;;;;5077809;28;20218;-69
2023/07/24 04:02:07;;;;;;;8.00;4.50;;;17.30;99.90;;;;;;5089160;28;20281;-70
2023/07/24 04:04:35;;;;;;;4.93;3.90;;;17.30;99.90;;;;;;5093190;28;20199;-70
2023/07/24 04:07:02;;;;;;;7.63;4.65;;;17.30;99.90;;;;;;5090465;28;21114;-69
2023/07/24 04:09:29;;;;;;;7.45;4.13;;;17.40;99.90;;;;;;5086360;28;20236;-70
2023/07/24 04:11:56;;;;;;;4.85;3.97;;;17.40;99.90;;;;;;5088799;28;20256;-70
2023/07/24 04:14:22;;;;;;;6.50;4.15;;;17.30;99.90;;;;;;5073520;28;20230;-69
2023/07/24 04:16:49;;;;;;;4.97;3.97;;;17.30;99.90;;;;;;5095621;28;20290;-70
2023/07/24 04:19:16;;;;;;;6.38;4.60;;;17.30;99.90;;;;;;5092263;28;20353;-69
2023/07/24 04:21:44;;;;;;;4.95;3.90;;;17.30;99.90;;;;;;5089597;27;20282;-70
2023/07/24 04:24:11;;;;;;;7.18;4.20;;;17.40;99.90;;;;;;5083892;28;20315;-70
2023/07/24 04:26:39;;;;;;;8.27;5.07;;;17.40;99.90;;;;;;5096555;28;20287;-69
2023/07/24 04:29:06;;;;;;;5.20;4.28;;;17.40;99.90;;;;;;5070931;28;20317;-69
2023/07/24 04:31:33;;;;;;;4.40;3.83;;;17.40;99.90;;;;;;5091214;28;20209;-71
2023/07/24 04:34:00;;;;;;;5.22;4.28;;;17.40;99.90;;;;;;5089977;28;20291;-70
2023/07/24 04:36:26;;;;;;;5.38;4.30;;;17.40;99.90;;;;;;5094713;27;20286;-70
2023/07/24 04:38:54;;;;;;;7.47;4.30;;;17.50;99.90;;;;;;5085041;28;20234;-70
2023/07/24 04:41:21;;;;;;;4.57;3.65;;;17.50;99.90;;;;;;5092358;28;20252;-69
2023/07/24 04:43:48;;;;;;;5.00;4.18;;;17.50;99.90;;;;;;5090249;28;20199;-70
2023/07/24 04:46:15;;;;;;;5.80;4.20;;;17.50;99.90;;;;;;5074848;28;20203;-69
2023/07/24 04:48:42;;;;;;;4.30;3.63;;;17.50;99.90;;;;;;5089799;28;20322;-70
2023/07/24 04:51:09;;;;;;;6.57;3.92;;;17.60;99.90;;;;;;5087302;28;20191;-69
2023/07/24 04:53:36;;;;;;;4.05;3.65;;;17.60;99.90;;;;;;5095214;27;20219;-69
2023/07/24 04:56:04;;;;;;;4.50;3.97;;;17.70;99.90;;;;;;5089999;28;20219;-70
2023/07/24 04:58:31;;;;;;;4.20;3.80;;;17.70;99.90;;;;;;5093851;28;20196;-70
2023/07/24 05:00:58;;;;;;;12.88;3.88;;;17.70;99.90;;;;;;5068138;28;20214;-69
2023/07/24 05:03:24;;;;;;;4.70;3.90;;;17.70;99.90;;;;;;5088848;28;20219;-71
2023/07/24 05:05:55;;;;;;;4.80;3.53;;;17.70;99.90;;;;;;5094696;28;20211;-69
2023/07/24 05:08:22;;;;;;;4.93;3.60;;;17.70;99.90;;;;;;5089824;28;20192;-70
2023/07/24 05:10:55;;;;;;;7.53;3.97;;;17.70;99.90;;;;;;5097028;28;20254;-69
2023/07/24 05:13:24;;;;;;;5.53;4.15;;;17.70;99.90;;;;;;5088491;28;20196;-70
2023/07/24 05:15:50;;;;;;;5.18;3.45;;;17.70;99.90;;;;;;5094113;28;20294;-69
2023/07/24 05:18:17;;;;;;;5.75;3.58;;;17.60;99.90;;;;;;5071073;28;20200;-70
2023/07/24 05:20:46;;;;;;;6.22;3.53;;;17.70;99.90;;;;;;5089879;28;20428;-69
2023/07/24 05:23:15;;;;;;;3.80;3.50;;;17.70;99.90;;;;;;5087991;28;20208;-69
2023/07/24 05:25:42;;;;;;;6.63;3.88;;;17.70;99.90;;;;;;5089410;28;20729;-70
2023/07/24 05:28:09;;;;;;;6.28;3.95;;;17.70;99.90;;;;;;5088582;28;20300;-69
2023/07/24 05:30:38;;;;;;;6.50;3.95;;;17.70;99.90;;;;;;5089552;28;20233;-70
2023/07/24 05:33:04;;;;;;;6.70;3.72;;;17.70;99.90;;;;;;5069852;28;20227;-70
2023/07/24 05:35:31;;;;;;;5.38;4.25;;;17.70;99.90;;;;;;5087417;28;20306;-70
2023/07/24 05:37:58;;;;;;;6.88;3.53;;;17.80;99.90;;;;;;5087961;28;20299;-69
2023/07/24 05:40:25;;;;;;;4.60;3.33;;;17.70;99.90;;;;;;5088199;28;20306;-70
2023/07/24 05:42:52;;;;;;;4.63;3.92;;;17.80;99.90;;;;;;5089272;28;20222;-70
2023/07/24 05:45:18;;;;;;;4.57;4.05;;;17.80;99.90;;;;;;5089092;28;20298;-70
2023/07/24 05:47:47;;;;;;;3.75;3.45;;;17.80;99.90;;;;;;5071139;28;21339;-70
2023/07/24 05:50:14;;;;;;;5.03;3.67;;;;;;;;;;5090654;28;20316;-70
2023/07/24 05:52:41;;;;;;;6.30;3.45;;;17.80;99.90;;;;;;5081909;28;20208;-70
2023/07/24 05:55:09;;;;;;;5.95;4.07;;;17.80;99.90;;;;;;5088816;28;20206;-69
2023/07/24 05:57:36;;;;;;;4.78;3.75;;;17.80;99.90;;;;;;5089062;28;20199;-70
2023/07/24 06:00:03;;;;;;;6.40;3.88;;;17.80;99.90;;;;;;5090436;28;20888;-70
2023/07/24 06:02:30;;;;;;;4.20;3.67;;;17.80;99.90;;;;;;5068302;28;20721;-70
2023/07/24 06:05:01;;;;;;;4.22;3.50;;;17.80;99.90;;;;;;5090681;28;20227;-69
2023/07/24 06:07:28;;;;;;;6.20;4.10;;;17.90;99.90;;;;;;5087965;28;20219;-69
2023/07/24 06:09:54;;;;;;;4.45;3.60;;;17.90;99.90;;;;;;5090478;28;20720;-70
2023/07/24 06:12:21;;;;;;;5.07;3.70;;;17.90;99.90;;;;;;5090422;28;20288;-70
2023/07/24 06:14:48;;;;;;;4.93;3.95;;;17.90;99.90;;;;;;5093081;28;20224;-69
2023/07/24 06:17:15;;;;;;;4.45;3.90;;;17.80;99.90;;;;;;5095433;28;20279;-70
2023/07/24 06:19:42;;;;;;;4.47;4.00;;;17.90;99.90;;;;;;5076274;28;20222;-69
2023/07/24 06:22:10;;;;;;;7.82;3.72;;;17.90;99.90;;;;;;5093046;28;20209;-69
2023/07/24 06:24:37;;;;;;;5.80;4.25;;;17.90;99.90;;;;;;5092207;28;20287;-70
2023/07/24 06:27:06;;;;;;;4.00;3.60;;;17.90;99.90;;;;;;5098391;28;20196;-69
2023/07/24 06:29:33;;;;;;;5.47;3.75;;;18.00;99.90;;;;;;5091976;28;20748;-70
2023/07/24 06:32:00;;;;;;;4.35;3.95;;;18.00;99.90;;;;;;5097291;28;20196;-69
2023/07/24 06:34:27;;;;;;;5.38;3.70;;;18.20;99.90;;;;;;5071573;28;20906;-69
2023/07/24 06:36:54;;;;;;;4.78;3.92;;;18.00;99.90;;;;;;5093569;28;20299;-69
2023/07/24 06:39:22;;;;;;;5.07;4.00;;;17.90;99.90;;;;;;5092461;28;20328;-70
2023/07/24 06:41:49;;;;;;;4.32;3.92;;;18.00;99.90;;;;;;5094992;28;20222;-70
2023/07/24 06:44:16;;;;;;;6.43;4.07;;;17.90;99.90;;;;;;5096487;28;20204;-70
2023/07/24 06:46:42;;;;;;;4.75;4.22;;;17.90;99.90;;;;;;5095382;28;20287;-70
2023/07/24 06:49:10;;;;;;;7.25;4.05;;;17.90;99.90;;;;;;5098195;28;20577;-69
2023/07/24 06:51:37;;;;;;;4.15;3.72;;;17.90;99.90;;;;;;5077646;28;21080;-70
2023/07/24 06:54:04;;;;;;;4.28;3.80;;;17.80;99.90;;;;;;5096843;28;20199;-71
2023/07/24 06:56:32;;;;;;;5.75;4.30;;;17.90;99.90;;;;;;5092751;28;20632;-70
2023/07/24 06:58:58;;;;;;;5.25;4.30;;;17.90;99.90;;;;;;5096860;28;20283;-69
2023/07/24 07:01:25;;;;;;;5.22;4.20;;;17.90;99.90;;;;;;5091409;28;20306;-70
2023/07/24 07:03:52;;;;;;;6.55;4.85;;;17.90;99.90;;;;;;5096750;27;20227;-70
2023/07/24 07:06:19;;;;;;;6.22;4.80;;;17.90;99.90;;;;;;5074669;28;20219;-70
2023/07/24 07:08:46;;;;;;;5.22;4.72;;;17.90;99.90;;;;;;5094350;28;20214;-69
2023/07/24 07:11:13;;;;;;;5.75;4.45;;;18.00;99.90;;;;;;5096411;28;20231;-69
2023/07/24 07:13:41;;;;;;;5.57;4.30;;;18.00;99.90;;;;;;5095542;28;20219;-69
2023/07/24 07:16:08;;;;;;;5.45;4.75;;;17.90;99.90;;;;;;5096884;28;20283;-69
2023/07/24 07:18:34;;;;;;;5.05;4.35;;;18.00;99.90;;;;;;5091855;28;20630;-70
2023/07/24 07:21:01;;;;;;;8.25;4.78;;;19.40;99.90;;;;;;5076422;27;20223;-69
2023/07/24 07:23:28;;;;;;;6.32;4.65;;;18.00;99.90;;;;;;5089050;28;20212;-69
2023/07/24 07:25:55;;;;;;;5.50;4.70;;;18.00;99.90;;;;;;5094814;28;20229;-69
2023/07/24 07:28:22;;;;;;;6.38;4.65;;;18.00;99.90;;;;;;5092903;28;20319;-69
2023/07/24 07:30:50;;;;;;;6.28;4.80;;;18.00;99.90;;;;;;5095356;28;20234;-70
2023/07/24 07:33:17;;;;;;;5.22;4.50;;;;;;;;;;5097516;28;20227;-69
2023/07/24 07:35:44;;;;;;;6.22;4.68;;;18.10;99.90;;;;;;5094169;28;20685;-69
2023/07/24 07:38:11;;;;;;;5.25;4.75;;;18.10;99.90;;;;;;5076247;27;20707;-69
2023/07/24 07:40:39;;;;;;;5.55;5.05;;;18.10;99.90;;;;;;5093876;28;20318;-70
2023/07/24 07:43:06;;;;;;;7.35;4.93;;;18.10;99.90;;;;;;5095871;28;20200;-70
2023/07/24 07:45:33;;;;;;;5.68;5.00;;;18.20;99.90;;;;;;5092779;28;20629;-69
2023/07/24 07:48:01;;;;;;;6.15;5.55;;;18.20;99.90;;;;;;5093691;28;20264;-70
2023/07/24 07:50:28;;;;;;;7.47;5.30;;;18.20;99.90;;;;;;5093571;28;20711;-70
2023/07/24 07:52:55;;;;;;;6.40;5.10;;;18.20;99.90;;;;;;5059879;28;20227;-70
2023/07/24 07:55:22;;;;;;;5.88;5.15;;;18.30;99.90;;;;;;5094043;28;20227;-70
2023/07/24 07:57:48;;;;;;;8.93;5.57;;;18.30;99.90;;;;;;5093245;28;20764;-70
2023/07/24 08:00:16;;;;;;;9.15;5.63;;;18.40;99.90;;;;;;5092146;28;20239;-69
2023/07/24 08:02:43;;;;;;;6.75;5.28;;;18.50;99.90;;;;;;5095170;28;20226;-70
2023/07/24 08:05:12;;;;;;;7.97;5.88;;;18.50;99.90;;;;;;5092535;28;20223;-70
2023/07/24 08:07:38;;;;;;;7.35;5.55;;;18.60;99.90;;;;;;5074116;28;20223;-69
2023/07/24 08:10:06;;;;;;;7.55;5.78;;;18.60;99.90;;;;;;5093868;28;21081;-69
2023/07/24 08:12:33;;;;;;;9.82;5.90;;;18.60;99.90;;;;;;5094658;28;20192;-69
2023/07/24 08:15:00;;;;;;;8.68;6.00;;;18.70;99.90;;;;;;5091276;28;20715;-70
2023/07/24 08:17:27;;;;;;;7.65;6.03;;;18.70;99.90;;;;;;5092486;28;20273;-70
2023/07/24 08:19:54;;;;;;;8.52;5.88;;;18.70;99.90;;;;;;5093280;28;20206;-70
2023/07/24 08:22:22;;;;;;;7.57;5.68;;;18.60;99.90;;;;;;5076422;28;20699;-69
2023/07/24 08:24:51;;;;;;;9.98;5.65;;;18.70;99.90;;;;;;5094917;28;20210;-70
2023/07/24 08:27:18;;;;;;;10.48;5.93;;;18.60;99.90;;;;;;5093326;28;20203;-69
2023/07/24 08:29:45;;;;;;;9.98;6.38;;;18.60;99.90;;;;;;5094279;28;20734;-70
2023/07/24 08:32:12;;;;;;;7.10;6.05;;;18.60;99.90;;;;;;5092023;28;20243;-70
2023/07/24 08:34:39;;;;;;;5.95;5.28;;;18.60;99.90;;;;;;5094297;28;20614;-69
2023/07/24 08:37:06;;;;;;;6.40;5.47;;;18.60;99.90;;;;;;5062732;28;21073;-69
2023/07/24 08:39:34;;;;;;;7.93;6.18;;;18.60;99.90;;;;;;5093861;28;20290;-70
2023/07/24 08:42:09;;;;;;;6.68;5.70;;;18.70;99.90;;;;;;5090460;28;20199;-70
2023/07/24 08:44:37;;;;;;;8.30;5.70;;;18.80;99.90;;;;;;5094391;27;20214;-70
2023/07/24 08:47:05;;;;;;;7.30;5.97;;;18.80;99.90;;;;;;5087906;28;20310;-70
2023/07/24 08:49:34;;;;;;;7.80;5.65;;;18.90;99.90;;;;;;5090571;28;20655;-69
2023/07/24 08:52:02;;;;;;;11.18;6.15;;;18.90;99.90;;;;;;5089260;28;21487;-69
2023/07/24 08:54:30;;;;;;;6.80;5.97;;;19.00;99.90;;;;;;5072943;28;20331;-69
2023/07/24 08:56:58;;;;;;;6.35;5.70;;;19.00;99.90;;;;;;5090300;28;20215;-70
2023/07/24 08:59:25;;;;;;;9.77;6.68;;;19.00;99.90;;;;;;5095969;28;20286;-69
2023/07/24 09:01:52;;;;;;;8.02;5.95;;;19.00;99.90;;;;;;5093915;28;20315;-73
2023/07/24 09:04:18;;;;;;;10.38;6.05;;;19.10;99.90;;;;;;5093727;28;20215;-70
2023/07/24 09:06:46;;;;;;;7.00;6.18;;;19.00;99.90;;;;;;5091719;28;20314;-69
2023/07/24 09:09:14;;;;;;;7.63;5.75;;;19.00;99.90;;;;;;5073177;28;20212;-69
2023/07/24 09:11:47;;;;;;;8.73;5.55;;;19.10;99.90;;;;;;5093675;28;20227;-69
2023/07/24 09:14:23;;;;;;;6.82;5.60;;;19.20;99.90;;;;;;5092028;28;20208;-69
2023/07/24 09:16:52;;;;;;;6.70;5.78;;;19.10;99.90;;;;;;5094457;28;20561;-69
2023/07/24 09:19:19;;;;;;;8.50;5.93;;;19.10;99.90;;;;;;5094682;28;20199;-69
2023/07/24 09:21:46;;;;;;;9.55;6.07;;;19.90;99.90;;;;;;5078407;28;20585;-70
2023/07/24 09:24:14;;;;;;;7.53;6.22;;;19.30;99.90;;;;;;5070472;28;20227;-70
2023/07/24 09:26:49;;;;;;;8.07;5.50;;;19.30;99.90;;;;;;5093258;28;21317;-70
2023/07/24 09:29:16;;;;;;;10.57;6.38;;;19.30;99.90;;;;;;5092100;28;20229;-69
2023/07/24 09:31:45;;;;;;;7.95;6.10;;;19.40;99.90;;;;;;5096342;28;20325;-69
2023/07/24 09:34:16;;;;;;;6.30;5.70;;;19.50;99.90;;;;;;5091743;28;20268;-70
2023/07/24 09:36:43;;;;;;;8.43;6.63;;;19.60;99.90;;;;;;5095205;28;20195;-70
2023/07/24 09:39:11;;;;;;;8.25;5.88;;;19.60;99.90;;;;;;5073137;28;20214;-69
2023/07/24 09:41:38;;;;;;;7.47;6.32;;;19.60;99.90;;;;;;5093369;28;20647;-69
2023/07/24 09:44:05;;;;;;;9.38;5.97;;;19.70;99.90;;;;;;5081261;28;20215;-69
2023/07/24 09:46:32;;;;;;;7.13;6.35;;;19.80;99.90;;;;;;5094229;28;20302;-69
2023/07/24 09:49:01;;;;;;;7.35;6.25;;;20.00;99.90;;;;;;5091323;28;20195;-69
2023/07/24 09:51:31;;;;;;;6.55;5.95;;;20.00;99.90;;;;;;5096199;28;20703;-69
2023/07/24 09:54:06;;;;;;;9.25;5.90;;;20.00;99.90;;;;;;5074153;28;20616;-69
2023/07/24 09:56:33;;;;;;;7.22;5.68;;;20.10;99.90;;;;;;5092194;28;20725;-69
2023/07/24 09:59:03;;;;;;;7.70;5.85;;;20.10;99.90;;;;;;5094862;28;20215;-69
2023/07/24 10:01:32;;;;;;;6.80;6.10;;;20.10;99.90;;;;;;5098451;28;20202;-69
2023/07/24 10:04:00;;;;;;;8.00;6.32;;;20.20;99.90;;;;;;5093623;28;20195;-69
2023/07/24 10:06:29;;;;;;;8.45;7.13;;;20.10;99.90;;;;;;5095031;28;20223;-69
2023/07/24 10:08:56;;;;;;;9.90;6.00;;;20.10;99.90;;;;;;5092961;28;20212;-69
2023/07/24 10:11:24;;;;;;;7.90;6.95;;;20.10;99.90;;;;;;5077235;28;20227;-69
2023/07/24 10:13:51;;;;;;;7.18;6.32;;;20.30;99.90;;;;;;5096310;28;20795;-69
2023/07/24 10:16:18;;;;;;;11.23;6.55;;;20.30;99.90;;;;;;5096409;27;20279;-69
2023/07/24 10:18:46;;;;;;;6.82;6.13;;;20.30;99.90;;;;;;5097356;28;20863;-69
2023/07/24 10:21:15;;;;;;;8.82;5.68;;;20.50;99.90;;;;;;5082369;28;20226;-69
2023/07/24 10:23:43;;;;;;;6.63;5.90;;;20.50;99.90;;;;;;5096641;28;20297;-69
2023/07/24 10:26:11;;;;;;;7.20;5.47;;;20.50;99.90;;;;;;5075689;28;20204;-69
2023/07/24 10:28:39;;;;;;;5.88;5.18;;;20.60;99.90;;;;;;5097391;27;20242;-69
2023/07/24 10:31:08;;;;;;;10.93;5.53;;;20.70;99.90;;;;;;5093588;28;20227;-70
2023/07/24 10:33:38;;;;;;;5.65;5.07;;;20.80;99.90;;;;;;5095430;28;20506;-69
2023/07/24 10:36:08;;;;;;;6.75;4.68;;;20.90;99.90;;;;;;5093534;28;20211;-69
2023/07/24 10:38:38;;;;;;;5.07;4.60;;;21.10;99.90;;;;;;5094433;28;20218;-68
2023/07/24 10:41:06;;;;;;;5.18;4.68;;;21.00;99.90;;;;;;5071568;28;20223;-69
2023/07/24 10:43:42;;;;;;;7.95;4.70;;;21.00;99.90;;;;;;5092010;28;21765;-69
2023/07/24 10:46:09;;;;;;;5.38;4.18;;;21.10;99.90;;;;;;5087634;28;21270;-69
2023/07/24 10:48:36;;;;;;;5.53;4.25;;;21.00;99.90;;;;;;5098037;28;20219;-68
2023/07/24 10:51:08;;;;;;;5.45;4.45;;;21.10;99.90;;;;;;5093522;28;21078;-69
2023/07/24 10:53:37;;;;;;;5.85;4.40;;;21.10;99.90;;;;;;5096225;28;20203;-69
2023/07/24 10:56:04;;;;;;;5.07;4.18;;;21.10;99.90;;;;;;5073114;28;20207;-69
2023/07/24 10:58:32;;;;;;;5.97;4.50;;;21.10;99.90;;;;;;5096513;28;20579;-69
2023/07/24 11:00:59;;;;;;;6.63;4.30;;;21.20;99.90;;;;;;5093278;28;20257;-69
2023/07/24 11:03:27;;;;;;;4.75;4.18;;;21.20;99.90;;;;;;5097269;27;20673;-68
2023/07/24 11:05:55;;;;;;;7.00;4.03;;;21.30;99.90;;;;;;5090477;28;20219;-69
2023/07/24 11:08:22;;;;;;;5.63;3.90;;;21.30;99.90;;;;;;5083436;28;20276;-68
2023/07/24 11:10:51;;;;;;;4.03;3.63;;;21.40;99.90;;;;;;5093571;28;20851;-69
2023/07/24 11:13:19;;;;;;;4.53;3.80;;;21.50;99.90;;;;;;5071892;28;20249;-68
2023/07/24 11:15:47;;;;;;;4.80;3.60;;;;;;;;;;5093830;28;20793;-68
2023/07/24 11:18:13;;;;;;;4.80;4.28;;;21.70;99.90;;;;;;5093287;28;20215;-68
2023/07/24 11:20:45;;;;;;;4.22;3.83;;;21.60;99.90;;;;;;5095152;28;20628;-67
2023/07/24 11:23:13;;;;;;;5.07;4.20;;;21.60;99.90;;;;;;5095268;28;20219;-68
2023/07/24 11:25:40;;;;;;;4.93;4.22;;;21.60;99.90;;;;;;5098302;28;20203;-68
2023/07/24 11:28:10;;;;;;;4.13;3.70;;;21.80;99.90;;;;;;5073203;28;20331;-68
2023/07/24 11:30:37;;;;;;;9.10;4.15;;;21.80;99.90;;;;;;5097116;28;20664;-68
2023/07/24 11:33:06;;;;;;;4.40;3.80;;;21.70;99.90;;;;;;5093368;28;20223;-68
2023/07/24 11:35:33;;;;;;;4.28;3.20;;;21.70;99.90;;;;;;5097618;28;20562;-68
2023/07/24 11:38:00;;;;;;;5.93;3.95;;;21.60;99.90;;;;;;5091624;28;20199;-68
2023/07/24 11:40:33;;;;;;;4.60;3.75;;;21.80;99.90;;;;;;5097227;28;20196;-68
2023/07/24 11:43:00;;;;;;;6.07;4.15;;;21.90;99.90;;;;;;5071138;28;20203;-68
2023/07/24 11:45:28;;;;;;;5.13;4.10;;;21.90;99.90;;;;;;5095741;28;20206;-68
2023/07/24 11:47:56;;;;;;;6.72;3.92;;;21.90;99.90;;;;;;5088261;28;20924;-68
2023/07/24 11:50:24;;;;;;;4.20;3.80;;;21.90;99.90;;;;;;5097288;28;20200;-68
2023/07/24 11:52:52;;;;;;;4.72;3.85;;;21.90;99.90;;;;;;5093856;28;20578;-68
2023/07/24 11:55:21;;;;;;;3.92;3.53;;;21.90;99.90;;;;;;5093872;27;20245;-68
2023/07/24 11:57:58;;;;;;;5.03;4.13;;;22.00;99.90;;;;;;5077681;28;20216;-68
2023/07/24 12:00:25;;;;;;;4.32;3.83;;;22.00;99.90;;;;;;5078695;28;20204;-68
2023/07/24 12:02:54;;;;;;;8.00;4.25;;;22.20;99.90;;;;;;5094442;28;20211;-68
2023/07/24 12:05:21;;;;;;;5.50;3.38;;;22.20;99.90;;;;;;5093594;28;20244;-68
2023/07/24 12:07:48;;;;;;;3.35;2.90;;;22.40;99.90;;;;;;5094974;28;20295;-69
2023/07/24 12:10:27;;;;;;;4.35;3.28;;;22.40;99.90;;;;;;5093984;28;20825;-68
2023/07/24 12:12:54;;;;;;;5.70;3.25;;;22.30;99.90;;;;;;5091114;28;20226;-68
2023/07/24 12:15:21;;;;;;;3.72;3.17;;;22.40;99.90;;;;;;5074695;27;20226;-67
2023/07/24 12:17:47;;;;;;;9.85;3.42;;;22.30;99.90;;;;;;5093488;28;20250;-68
2023/07/24 12:20:16;;;;;;;6.05;3.83;;;22.30;99.90;;;;;;5093354;28;20305;-67
2023/07/24 12:22:42;;;;;;;3.63;2.95;;;22.30;99.90;;;;;;5092420;28;20226;-68
2023/07/24 12:25:09;;;;;;;5.18;3.83;;;22.30;99.90;;;;;;5092022;28;20310;-68
2023/07/24 12:27:37;;;;;;;5.53;3.85;;;22.40;99.90;;;;;;5097844;28;20192;-67
2023/07/24 12:30:05;;;;;;;4.85;3.67;;;22.30;99.90;;;;;;5071891;28;20226;-68
2023/07/24 12:32:32;;;;;;;5.55;3.50;;;22.40;99.90;;;;;;5091838;28;20227;-68
2023/07/24 12:34:59;;;;;;;5.60;3.58;;;22.50;99.90;;;;;;5093409;28;20199;-68
2023/07/24 12:37:28;;;;;;;3.85;3.50;;;22.50;99.90;;;;;;5094003;28;20227;-68
2023/07/24 12:39:55;;;;;;;6.65;3.97;;;22.40;99.90;;;;;;5090079;28;20196;-68
2023/07/24 12:42:22;;;;;;;4.60;4.20;;;22.40;99.90;;;;;;5093904;28;20241;-68
2023/07/24 12:44:48;;;;;;;5.53;4.25;;;22.30;99.90;;;;;;5072356;28;20280;-68
2023/07/24 12:47:15;;;;;;;4.43;3.50;;;22.30;99.90;;;;;;5094499;27;20284;-67
2023/07/24 12:49:42;;;;;;;5.53;3.90;;;22.20;99.90;;;;;;5087857;28;20287;-68